sensor_id;sensor_type;location;lat;lon;timestamp;P1;durP1;ratioP1;P2;durP2;ratioP2
22644;SDS011;11489;50.834;6.752;2023-04-24T00:02:24;1.20;;;1.05;;
22644;SDS011;11489;50.834;6.752;2023-04-24T00:04:50;2.80;;;1.00;;
22644;SDS011;11489;50.834;6.752;2023-04-24T00:07:16;2.35;;;1.10;;
22644;SDS011;11489;50.834;6.752;2023-04-24T00:09:45;1.20;;;1.10;;
22644;SDS011;11489;50.834;6.752;2023-04-24T00:12:11;1.70;;;1.10;;
22644;SDS011;11489;50.834;6.752;2023-04-24T00:14:36;1.50;;;1.10;;
22644;SDS011;11489;50.834;6.752;2023-04-24T00:17:02;1.20;;;0.90;;
22644;SDS011;11489;50.834;6.752;2023-04-24T00:19:28;1.30;;;1.10;;
22644;SDS011;11489;50.834;6.752;2023-04-24T00:21:54;2.00;;;1.20;;
22644;SDS011;11489;50.834;6.752;2023-04-24T00:24:20;2.03;;;1.00;;
22644;SDS011;11489;50.834;6.752;2023-04-24T00:26:46;1.30;;;1.15;;
22644;SDS011;11489;50.834;6.752;2023-04-24T00:29:12;1.17;;;1.08;;
22644;SDS011;11489;50.834;6.752;2023-04-24T00:31:37;1.17;;;1.02;;
22644;SDS011;11489;50.834;6.752;2023-04-24T00:34:03;1.20;;;0.90;;
22644;SDS011;11489;50.834;6.752;2023-04-24T00:36:30;1.92;;;1.00;;
22644;SDS011;11489;50.834;6.752;2023-04-24T00:38:56;1.10;;;1.00;;
22644;SDS011;11489;50.834;6.752;2023-04-24T00:41:22;1.77;;;1.30;;
22644;SDS011;11489;50.834;6.752;2023-04-24T00:43:49;1.20;;;1.10;;
22644;SDS011;11489;50.834;6.752;2023-04-24T00:46:16;1.40;;;1.05;;
22644;SDS011;11489;50.834;6.752;2023-04-24T00:48:41;2.60;;;1.10;;
22644;SDS011;11489;50.834;6.752;2023-04-24T00:51:08;1.58;;;1.17;;
22644;SDS011;11489;50.834;6.752;2023-04-24T00:53:34;1.83;;;1.15;;
22644;SDS011;11489;50.834;6.752;2023-04-24T00:56:00;2.47;;;1.40;;
22644;SDS011;11489;50.834;6.752;2023-04-24T00:58:27;2.25;;;1.15;;
22644;SDS011;11489;50.834;6.752;2023-04-24T01:00:53;1.40;;;1.30;;
22644;SDS011;11489;50.834;6.752;2023-04-24T01:03:21;2.28;;;1.40;;
22644;SDS011;11489;50.834;6.752;2023-04-24T01:05:49;1.63;;;1.30;;
22644;SDS011;11489;50.834;6.752;2023-04-24T01:08:15;3.50;;;1.70;;
22644;SDS011;11489;50.834;6.752;2023-04-24T01:10:41;3.78;;;1.52;;
22644;SDS011;11489;50.834;6.752;2023-04-24T01:13:10;4.65;;;1.90;;
22644;SDS011;11489;50.834;6.752;2023-04-24T01:15:35;5.63;;;1.80;;
22644;SDS011;11489;50.834;6.752;2023-04-24T01:18:02;3.65;;;2.13;;
22644;SDS011;11489;50.834;6.752;2023-04-24T01:20:28;3.70;;;2.40;;
22644;SDS011;11489;50.834;6.752;2023-04-24T01:22:55;2.40;;;2.05;;
22644;SDS011;11489;50.834;6.752;2023-04-24T01:25:21;3.30;;;2.10;;
22644;SDS011;11489;50.834;6.752;2023-04-24T01:27:48;2.97;;;2.20;;
22644;SDS011;11489;50.834;6.752;2023-04-24T01:30:13;3.03;;;2.38;;
22644;SDS011;11489;50.834;6.752;2023-04-24T01:32:40;3.25;;;2.38;;
22644;SDS011;11489;50.834;6.752;2023-04-24T01:35:07;5.63;;;2.67;;
22644;SDS011;11489;50.834;6.752;2023-04-24T01:37:33;3.90;;;2.47;;
22644;SDS011;11489;50.834;6.752;2023-04-24T01:39:58;3.65;;;2.88;;
22644;SDS011;11489;50.834;6.752;2023-04-24T01:42:24;4.43;;;2.78;;
22644;SDS011;11489;50.834;6.752;2023-04-24T01:44:50;3.85;;;3.03;;
22644;SDS011;11489;50.834;6.752;2023-04-24T01:47:16;4.22;;;3.00;;
22644;SDS011;11489;50.834;6.752;2023-04-24T01:49:42;3.78;;;3.03;;
22644;SDS011;11489;50.834;6.752;2023-04-24T01:52:08;3.78;;;3.03;;
22644;SDS011;11489;50.834;6.752;2023-04-24T01:54:33;3.92;;;2.92;;
22644;SDS011;11489;50.834;6.752;2023-04-24T01:56:59;3.80;;;3.08;;
22644;SDS011;11489;50.834;6.752;2023-04-24T01:59:27;7.47;;;3.17;;
22644;SDS011;11489;50.834;6.752;2023-04-24T02:01:53;6.18;;;3.17;;
22644;SDS011;11489;50.834;6.752;2023-04-24T02:04:19;5.75;;;3.60;;
22644;SDS011;11489;50.834;6.752;2023-04-24T02:06:45;7.15;;;4.07;;
22644;SDS011;11489;50.834;6.752;2023-04-24T02:09:10;6.97;;;4.82;;
22644;SDS011;11489;50.834;6.752;2023-04-24T02:11:36;7.28;;;4.93;;
22644;SDS011;11489;50.834;6.752;2023-04-24T02:14:02;12.05;;;5.30;;
22644;SDS011;11489;50.834;6.752;2023-04-24T02:16:28;7.60;;;5.18;;
22644;SDS011;11489;50.834;6.752;2023-04-24T02:18:57;8.55;;;5.15;;
22644;SDS011;11489;50.834;6.752;2023-04-24T02:21:23;8.48;;;5.28;;
22644;SDS011;11489;50.834;6.752;2023-04-24T02:23:48;10.15;;;5.25;;
22644;SDS011;11489;50.834;6.752;2023-04-24T02:26:14;10.35;;;5.13;;
22644;SDS011;11489;50.834;6.752;2023-04-24T02:28:40;8.15;;;5.25;;
22644;SDS011;11489;50.834;6.752;2023-04-24T02:31:06;7.65;;;5.40;;
22644;SDS011;11489;50.834;6.752;2023-04-24T02:33:32;8.15;;;5.63;;
22644;SDS011;11489;50.834;6.752;2023-04-24T02:35:57;10.85;;;5.47;;
22644;SDS011;11489;50.834;6.752;2023-04-24T02:38:23;10.27;;;6.03;;
22644;SDS011;11489;50.834;6.752;2023-04-24T02:40:49;9.80;;;5.90;;
22644;SDS011;11489;50.834;6.752;2023-04-24T02:43:14;8.68;;;5.70;;
22644;SDS011;11489;50.834;6.752;2023-04-24T02:45:40;7.93;;;5.63;;
22644;SDS011;11489;50.834;6.752;2023-04-24T02:48:05;8.93;;;5.75;;
22644;SDS011;11489;50.834;6.752;2023-04-24T02:50:31;8.98;;;5.82;;
22644;SDS011;11489;50.834;6.752;2023-04-24T02:52:58;9.60;;;6.35;;
22644;SDS011;11489;50.834;6.752;2023-04-24T02:55:24;8.32;;;6.20;;
22644;SDS011;11489;50.834;6.752;2023-04-24T02:57:50;9.88;;;6.15;;
22644;SDS011;11489;50.834;6.752;2023-04-24T03:00:15;8.75;;;6.22;;
22644;SDS011;11489;50.834;6.752;2023-04-24T03:02:41;10.23;;;6.40;;
22644;SDS011;11489;50.834;6.752;2023-04-24T03:05:07;9.52;;;6.68;;
22644;SDS011;11489;50.834;6.752;2023-04-24T03:07:34;9.52;;;6.00;;
22644;SDS011;11489;50.834;6.752;2023-04-24T03:09:59;11.00;;;6.07;;
22644;SDS011;11489;50.834;6.752;2023-04-24T03:12:25;9.02;;;6.38;;
22644;SDS011;11489;50.834;6.752;2023-04-24T03:14:51;11.13;;;6.18;;
22644;SDS011;11489;50.834;6.752;2023-04-24T03:17:16;12.55;;;7.05;;
22644;SDS011;11489;50.834;6.752;2023-04-24T03:19:42;9.50;;;6.35;;
22644;SDS011;11489;50.834;6.752;2023-04-24T03:22:07;11.35;;;6.78;;
22644;SDS011;11489;50.834;6.752;2023-04-24T03:24:34;13.98;;;6.68;;
22644;SDS011;11489;50.834;6.752;2023-04-24T03:27:00;11.30;;;6.82;;
22644;SDS011;11489;50.834;6.752;2023-04-24T03:29:25;10.48;;;7.10;;
22644;SDS011;11489;50.834;6.752;2023-04-24T03:31:51;11.50;;;6.43;;
22644;SDS011;11489;50.834;6.752;2023-04-24T03:34:16;11.73;;;6.75;;
22644;SDS011;11489;50.834;6.752;2023-04-24T03:36:42;9.70;;;6.60;;
22644;SDS011;11489;50.834;6.752;2023-04-24T03:39:08;12.18;;;6.95;;
22644;SDS011;11489;50.834;6.752;2023-04-24T03:41:33;10.60;;;6.78;;
22644;SDS011;11489;50.834;6.752;2023-04-24T03:43:59;10.85;;;5.93;;
22644;SDS011;11489;50.834;6.752;2023-04-24T03:46:25;10.27;;;6.50;;
22644;SDS011;11489;50.834;6.752;2023-04-24T03:48:51;10.02;;;6.60;;
22644;SDS011;11489;50.834;6.752;2023-04-24T03:51:16;10.90;;;6.15;;
22644;SDS011;11489;50.834;6.752;2023-04-24T03:53:42;9.38;;;6.35;;
22644;SDS011;11489;50.834;6.752;2023-04-24T03:56:08;9.45;;;5.97;;
22644;SDS011;11489;50.834;6.752;2023-04-24T03:58:33;8.98;;;6.43;;
22644;SDS011;11489;50.834;6.752;2023-04-24T04:00:59;11.23;;;6.47;;
22644;SDS011;11489;50.834;6.752;2023-04-24T04:03:25;13.30;;;6.88;;
22644;SDS011;11489;50.834;6.752;2023-04-24T04:05:50;10.45;;;6.63;;
22644;SDS011;11489;50.834;6.752;2023-04-24T04:08:16;9.15;;;5.97;;
22644;SDS011;11489;50.834;6.752;2023-04-24T04:10:42;9.65;;;6.20;;
22644;SDS011;11489;50.834;6.752;2023-04-24T04:13:08;11.60;;;6.28;;
22644;SDS011;11489;50.834;6.752;2023-04-24T04:15:34;11.63;;;6.15;;
22644;SDS011;11489;50.834;6.752;2023-04-24T04:17:59;8.60;;;6.20;;
22644;SDS011;11489;50.834;6.752;2023-04-24T04:20:28;10.40;;;6.38;;
22644;SDS011;11489;50.834;6.752;2023-04-24T04:22:54;8.35;;;5.97;;
22644;SDS011;11489;50.834;6.752;2023-04-24T04:25:20;11.05;;;5.78;;
22644;SDS011;11489;50.834;6.752;2023-04-24T04:27:46;11.15;;;5.82;;
22644;SDS011;11489;50.834;6.752;2023-04-24T04:30:13;11.02;;;6.45;;
22644;SDS011;11489;50.834;6.752;2023-04-24T04:32:42;9.25;;;5.50;;
22644;SDS011;11489;50.834;6.752;2023-04-24T04:35:07;9.35;;;5.90;;
22644;SDS011;11489;50.834;6.752;2023-04-24T04:37:34;9.30;;;6.15;;
22644;SDS011;11489;50.834;6.752;2023-04-24T04:40:00;8.38;;;5.93;;
22644;SDS011;11489;50.834;6.752;2023-04-24T04:42:31;7.75;;;5.50;;
22644;SDS011;11489;50.834;6.752;2023-04-24T04:44:57;9.30;;;5.70;;
22644;SDS011;11489;50.834;6.752;2023-04-24T04:47:23;8.18;;;5.22;;
22644;SDS011;11489;50.834;6.752;2023-04-24T04:49:49;7.55;;;5.03;;
22644;SDS011;11489;50.834;6.752;2023-04-24T04:52:18;10.07;;;5.68;;
22644;SDS011;11489;50.834;6.752;2023-04-24T04:54:44;7.93;;;5.20;;
22644;SDS011;11489;50.834;6.752;2023-04-24T04:57:11;8.95;;;5.38;;
22644;SDS011;11489;50.834;6.752;2023-04-24T04:59:37;7.05;;;5.03;;
22644;SDS011;11489;50.834;6.752;2023-04-24T05:02:03;11.43;;;5.88;;
22644;SDS011;11489;50.834;6.752;2023-04-24T05:04:29;10.63;;;5.65;;
22644;SDS011;11489;50.834;6.752;2023-04-24T05:06:55;8.77;;;6.18;;
22644;SDS011;11489;50.834;6.752;2023-04-24T05:09:21;8.15;;;5.30;;
22644;SDS011;11489;50.834;6.752;2023-04-24T05:11:47;9.73;;;5.70;;
22644;SDS011;11489;50.834;6.752;2023-04-24T05:14:13;8.23;;;5.78;;
22644;SDS011;11489;50.834;6.752;2023-04-24T05:16:41;7.13;;;5.18;;
22644;SDS011;11489;50.834;6.752;2023-04-24T05:19:06;8.40;;;5.13;;
22644;SDS011;11489;50.834;6.752;2023-04-24T05:21:32;8.18;;;5.38;;
22644;SDS011;11489;50.834;6.752;2023-04-24T05:23:57;6.95;;;5.10;;
22644;SDS011;11489;50.834;6.752;2023-04-24T05:26:23;8.10;;;5.28;;
22644;SDS011;11489;50.834;6.752;2023-04-24T05:28:49;9.70;;;6.03;;
22644;SDS011;11489;50.834;6.752;2023-04-24T05:31:15;8.75;;;5.45;;
22644;SDS011;11489;50.834;6.752;2023-04-24T05:33:42;8.07;;;5.45;;
22644;SDS011;11489;50.834;6.752;2023-04-24T05:36:08;8.27;;;5.60;;
22644;SDS011;11489;50.834;6.752;2023-04-24T05:38:34;7.38;;;5.32;;
22644;SDS011;11489;50.834;6.752;2023-04-24T05:41:00;8.77;;;6.00;;
22644;SDS011;11489;50.834;6.752;2023-04-24T05:43:26;8.15;;;6.00;;
22644;SDS011;11489;50.834;6.752;2023-04-24T05:45:51;7.10;;;5.43;;
22644;SDS011;11489;50.834;6.752;2023-04-24T05:48:18;7.82;;;5.15;;
22644;SDS011;11489;50.834;6.752;2023-04-24T05:50:52;7.15;;;5.22;;
22644;SDS011;11489;50.834;6.752;2023-04-24T05:53:18;8.90;;;4.82;;
22644;SDS011;11489;50.834;6.752;2023-04-24T05:55:44;5.10;;;3.78;;
22644;SDS011;11489;50.834;6.752;2023-04-24T05:58:10;7.72;;;4.32;;
22644;SDS011;11489;50.834;6.752;2023-04-24T06:00:37;6.28;;;4.05;;
22644;SDS011;11489;50.834;6.752;2023-04-24T06:03:08;6.65;;;3.42;;
22644;SDS011;11489;50.834;6.752;2023-04-24T06:05:34;4.72;;;3.28;;
22644;SDS011;11489;50.834;6.752;2023-04-24T06:08:00;4.70;;;2.92;;
22644;SDS011;11489;50.834;6.752;2023-04-24T06:10:25;5.32;;;2.30;;
22644;SDS011;11489;50.834;6.752;2023-04-24T06:12:51;3.88;;;2.28;;
22644;SDS011;11489;50.834;6.752;2023-04-24T06:15:17;3.95;;;2.15;;
22644;SDS011;11489;50.834;6.752;2023-04-24T06:17:43;3.03;;;2.28;;
22644;SDS011;11489;50.834;6.752;2023-04-24T06:20:08;3.50;;;2.42;;
22644;SDS011;11489;50.834;6.752;2023-04-24T06:22:36;3.95;;;2.10;;
22644;SDS011;11489;50.834;6.752;2023-04-24T06:25:01;2.47;;;2.00;;
22644;SDS011;11489;50.834;6.752;2023-04-24T06:27:27;3.47;;;2.00;;
22644;SDS011;11489;50.834;6.752;2023-04-24T06:29:53;1.92;;;1.65;;
22644;SDS011;11489;50.834;6.752;2023-04-24T06:32:21;1.83;;;1.60;;
22644;SDS011;11489;50.834;6.752;2023-04-24T06:34:53;2.00;;;1.40;;
22644;SDS011;11489;50.834;6.752;2023-04-24T06:37:22;2.83;;;1.33;;
22644;SDS011;11489;50.834;6.752;2023-04-24T06:39:48;1.58;;;1.35;;
22644;SDS011;11489;50.834;6.752;2023-04-24T06:42:16;3.88;;;1.40;;
22644;SDS011;11489;50.834;6.752;2023-04-24T06:44:42;1.35;;;1.20;;
22644;SDS011;11489;50.834;6.752;2023-04-24T06:47:08;1.95;;;1.30;;
22644;SDS011;11489;50.834;6.752;2023-04-24T06:49:38;2.08;;;1.35;;
22644;SDS011;11489;50.834;6.752;2023-04-24T06:52:04;1.50;;;1.35;;
22644;SDS011;11489;50.834;6.752;2023-04-24T06:54:30;2.00;;;1.38;;
22644;SDS011;11489;50.834;6.752;2023-04-24T06:56:56;1.73;;;1.48;;
22644;SDS011;11489;50.834;6.752;2023-04-24T06:59:26;3.03;;;1.50;;
22644;SDS011;11489;50.834;6.752;2023-04-24T07:01:53;2.25;;;1.30;;
22644;SDS011;11489;50.834;6.752;2023-04-24T07:04:21;1.85;;;1.35;;
22644;SDS011;11489;50.834;6.752;2023-04-24T07:06:46;1.98;;;1.35;;
22644;SDS011;11489;50.834;6.752;2023-04-24T07:09:14;1.73;;;1.30;;
22644;SDS011;11489;50.834;6.752;2023-04-24T07:11:41;1.52;;;1.27;;
22644;SDS011;11489;50.834;6.752;2023-04-24T07:14:07;2.35;;;1.50;;
22644;SDS011;11489;50.834;6.752;2023-04-24T07:16:33;2.65;;;1.40;;
22644;SDS011;11489;50.834;6.752;2023-04-24T07:18:59;2.58;;;1.50;;
22644;SDS011;11489;50.834;6.752;2023-04-24T07:21:25;2.53;;;1.67;;
22644;SDS011;11489;50.834;6.752;2023-04-24T07:23:52;2.20;;;1.60;;
22644;SDS011;11489;50.834;6.752;2023-04-24T07:26:23;1.52;;;1.20;;
22644;SDS011;11489;50.834;6.752;2023-04-24T07:28:50;3.20;;;1.40;;
22644;SDS011;11489;50.834;6.752;2023-04-24T07:31:22;9.07;;;2.20;;
22644;SDS011;11489;50.834;6.752;2023-04-24T07:33:48;3.15;;;1.85;;
22644;SDS011;11489;50.834;6.752;2023-04-24T07:36:14;2.78;;;1.70;;
22644;SDS011;11489;50.834;6.752;2023-04-24T07:38:47;2.75;;;1.60;;
22644;SDS011;11489;50.834;6.752;2023-04-24T07:41:13;3.30;;;1.40;;
22644;SDS011;11489;50.834;6.752;2023-04-24T07:43:39;2.30;;;1.30;;
22644;SDS011;11489;50.834;6.752;2023-04-24T07:46:08;1.63;;;1.10;;
22644;SDS011;11489;50.834;6.752;2023-04-24T07:48:34;3.47;;;1.48;;
22644;SDS011;11489;50.834;6.752;2023-04-24T07:51:00;3.63;;;1.25;;
22644;SDS011;11489;50.834;6.752;2023-04-24T07:53:26;2.72;;;1.40;;
22644;SDS011;11489;50.834;6.752;2023-04-24T07:55:51;1.85;;;1.40;;
22644;SDS011;11489;50.834;6.752;2023-04-24T07:58:22;2.60;;;1.45;;
22644;SDS011;11489;50.834;6.752;2023-04-24T08:00:47;2.38;;;1.60;;
22644;SDS011;11489;50.834;6.752;2023-04-24T08:03:13;2.63;;;1.92;;
22644;SDS011;11489;50.834;6.752;2023-04-24T08:05:40;5.10;;;1.70;;
22644;SDS011;11489;50.834;6.752;2023-04-24T08:08:06;2.72;;;1.80;;
22644;SDS011;11489;50.834;6.752;2023-04-24T08:10:35;3.35;;;1.77;;
22644;SDS011;11489;50.834;6.752;2023-04-24T08:13:04;5.95;;;2.20;;
22644;SDS011;11489;50.834;6.752;2023-04-24T08:15:30;2.25;;;1.90;;
22644;SDS011;11489;50.834;6.752;2023-04-24T08:17:56;4.63;;;2.00;;
22644;SDS011;11489;50.834;6.752;2023-04-24T08:20:25;3.38;;;2.33;;
22644;SDS011;11489;50.834;6.752;2023-04-24T08:22:50;2.42;;;1.92;;
22644;SDS011;11489;50.834;6.752;2023-04-24T08:25:16;2.85;;;1.67;;
22644;SDS011;11489;50.834;6.752;2023-04-24T08:27:46;2.70;;;2.10;;
22644;SDS011;11489;50.834;6.752;2023-04-24T08:30:11;2.00;;;1.70;;
22644;SDS011;11489;50.834;6.752;2023-04-24T08:32:37;3.30;;;1.80;;
22644;SDS011;11489;50.834;6.752;2023-04-24T08:35:03;4.88;;;2.15;;
22644;SDS011;11489;50.834;6.752;2023-04-24T08:37:29;4.05;;;2.30;;
22644;SDS011;11489;50.834;6.752;2023-04-24T08:39:55;3.25;;;2.08;;
22644;SDS011;11489;50.834;6.752;2023-04-24T08:42:21;3.65;;;2.30;;
22644;SDS011;11489;50.834;6.752;2023-04-24T08:44:48;3.83;;;2.15;;
22644;SDS011;11489;50.834;6.752;2023-04-24T08:47:14;5.70;;;2.88;;
22644;SDS011;11489;50.834;6.752;2023-04-24T08:49:40;4.60;;;3.05;;
22644;SDS011;11489;50.834;6.752;2023-04-24T08:52:06;4.55;;;2.78;;
22644;SDS011;11489;50.834;6.752;2023-04-24T08:54:35;5.63;;;2.58;;
22644;SDS011;11489;50.834;6.752;2023-04-24T08:57:02;5.43;;;3.00;;
22644;SDS011;11489;50.834;6.752;2023-04-24T08:59:31;5.13;;;3.13;;
22644;SDS011;11489;50.834;6.752;2023-04-24T09:01:57;6.43;;;3.25;;
22644;SDS011;11489;50.834;6.752;2023-04-24T09:04:23;8.20;;;3.55;;
22644;SDS011;11489;50.834;6.752;2023-04-24T09:06:57;6.53;;;3.88;;
22644;SDS011;11489;50.834;6.752;2023-04-24T09:09:24;6.80;;;3.33;;
22644;SDS011;11489;50.834;6.752;2023-04-24T09:11:50;8.80;;;3.55;;
22644;SDS011;11489;50.834;6.752;2023-04-24T09:14:19;6.03;;;3.38;;
22644;SDS011;11489;50.834;6.752;2023-04-24T09:16:46;7.93;;;3.60;;
22644;SDS011;11489;50.834;6.752;2023-04-24T09:19:12;5.57;;;4.00;;
22644;SDS011;11489;50.834;6.752;2023-04-24T09:21:38;8.10;;;3.95;;
22644;SDS011;11489;50.834;6.752;2023-04-24T09:24:05;8.43;;;3.97;;
22644;SDS011;11489;50.834;6.752;2023-04-24T09:26:39;8.98;;;4.20;;
22644;SDS011;11489;50.834;6.752;2023-04-24T09:29:07;5.57;;;3.88;;
22644;SDS011;11489;50.834;6.752;2023-04-24T09:31:36;8.13;;;4.15;;
22644;SDS011;11489;50.834;6.752;2023-04-24T09:34:03;8.40;;;4.10;;
22644;SDS011;11489;50.834;6.752;2023-04-24T09:36:31;6.43;;;4.47;;
22644;SDS011;11489;50.834;6.752;2023-04-24T09:39:06;10.00;;;4.45;;
22644;SDS011;11489;50.834;6.752;2023-04-24T09:41:35;9.95;;;4.68;;
22644;SDS011;11489;50.834;6.752;2023-04-24T09:44:20;7.28;;;4.35;;
22644;SDS011;11489;50.834;6.752;2023-04-24T09:46:51;8.23;;;4.22;;
22644;SDS011;11489;50.834;6.752;2023-04-24T09:49:22;9.20;;;4.28;;
22644;SDS011;11489;50.834;6.752;2023-04-24T09:51:48;7.25;;;4.57;;
22644;SDS011;11489;50.834;6.752;2023-04-24T09:54:15;6.28;;;3.78;;
22644;SDS011;11489;50.834;6.752;2023-04-24T09:56:43;6.95;;;4.05;;
22644;SDS011;11489;50.834;6.752;2023-04-24T09:59:13;6.72;;;3.67;;
22644;SDS011;11489;50.834;6.752;2023-04-24T10:01:40;8.77;;;4.10;;
22644;SDS011;11489;50.834;6.752;2023-04-24T10:04:16;6.15;;;4.00;;
22644;SDS011;11489;50.834;6.752;2023-04-24T10:06:43;10.98;;;4.40;;
22644;SDS011;11489;50.834;6.752;2023-04-24T10:09:09;9.32;;;4.25;;
22644;SDS011;11489;50.834;6.752;2023-04-24T10:11:37;8.57;;;4.00;;
22644;SDS011;11489;50.834;6.752;2023-04-24T10:14:09;8.90;;;4.13;;
22644;SDS011;11489;50.834;6.752;2023-04-24T10:16:37;10.18;;;4.47;;
22644;SDS011;11489;50.834;6.752;2023-04-24T10:19:05;8.60;;;4.45;;
22644;SDS011;11489;50.834;6.752;2023-04-24T10:21:31;6.43;;;4.00;;
22644;SDS011;11489;50.834;6.752;2023-04-24T10:23:59;6.32;;;3.85;;
22644;SDS011;11489;50.834;6.752;2023-04-24T10:26:28;7.78;;;4.35;;
22644;SDS011;11489;50.834;6.752;2023-04-24T10:28:54;8.13;;;4.63;;
22644;SDS011;11489;50.834;6.752;2023-04-24T10:31:23;11.55;;;4.68;;
22644;SDS011;11489;50.834;6.752;2023-04-24T10:33:50;5.55;;;3.97;;
22644;SDS011;11489;50.834;6.752;2023-04-24T10:36:18;9.23;;;4.47;;
22644;SDS011;11489;50.834;6.752;2023-04-24T10:38:47;9.63;;;4.28;;
22644;SDS011;11489;50.834;6.752;2023-04-24T10:41:15;8.27;;;4.82;;
22644;SDS011;11489;50.834;6.752;2023-04-24T10:43:48;9.85;;;5.00;;
22644;SDS011;11489;50.834;6.752;2023-04-24T10:46:32;12.13;;;4.88;;
22644;SDS011;11489;50.834;6.752;2023-04-24T10:48:58;9.07;;;5.05;;
22644;SDS011;11489;50.834;6.752;2023-04-24T10:51:24;8.50;;;4.88;;
22644;SDS011;11489;50.834;6.752;2023-04-24T10:54:22;10.27;;;5.53;;
22644;SDS011;11489;50.834;6.752;2023-04-24T10:56:47;10.70;;;5.40;;
22644;SDS011;11489;50.834;6.752;2023-04-24T10:59:23;10.80;;;5.25;;
22644;SDS011;11489;50.834;6.752;2023-04-24T11:01:53;10.10;;;5.57;;
22644;SDS011;11489;50.834;6.752;2023-04-24T11:04:30;13.35;;;5.55;;
22644;SDS011;11489;50.834;6.752;2023-04-24T11:06:57;8.55;;;5.00;;
22644;SDS011;11489;50.834;6.752;2023-04-24T11:09:22;7.75;;;4.45;;
22644;SDS011;11489;50.834;6.752;2023-04-24T11:11:52;8.90;;;4.40;;
22644;SDS011;11489;50.834;6.752;2023-04-24T11:17:33;10.85;;;5.25;;
22644;SDS011;11489;50.834;6.752;2023-04-24T11:22:33;8.52;;;4.82;;
22644;SDS011;11489;50.834;6.752;2023-04-24T11:25:02;9.13;;;5.15;;
22644;SDS011;11489;50.834;6.752;2023-04-24T11:27:38;11.20;;;5.55;;
22644;SDS011;11489;50.834;6.752;2023-04-24T11:30:05;6.45;;;4.28;;
22644;SDS011;11489;50.834;6.752;2023-04-24T11:34:58;9.32;;;4.40;;
22644;SDS011;11489;50.834;6.752;2023-04-24T11:37:27;8.48;;;4.68;;
22644;SDS011;11489;50.834;6.752;2023-04-24T11:39:55;10.93;;;4.60;;
22644;SDS011;11489;50.834;6.752;2023-04-24T11:42:22;10.30;;;4.82;;
22644;SDS011;11489;50.834;6.752;2023-04-24T11:44:49;10.23;;;4.68;;
22644;SDS011;11489;50.834;6.752;2023-04-24T11:47:16;9.38;;;5.20;;
22644;SDS011;11489;50.834;6.752;2023-04-24T11:49:44;12.95;;;5.95;;
22644;SDS011;11489;50.834;6.752;2023-04-24T11:52:11;12.00;;;5.72;;
22644;SDS011;11489;50.834;6.752;2023-04-24T11:54:47;12.07;;;6.10;;
22644;SDS011;11489;50.834;6.752;2023-04-24T11:57:16;12.88;;;5.85;;
22644;SDS011;11489;50.834;6.752;2023-04-24T11:59:45;12.23;;;6.28;;
22644;SDS011;11489;50.834;6.752;2023-04-24T12:02:24;11.40;;;6.38;;
22644;SDS011;11489;50.834;6.752;2023-04-24T12:04:52;14.20;;;6.82;;
22644;SDS011;11489;50.834;6.752;2023-04-24T12:07:18;13.48;;;6.80;;
22644;SDS011;11489;50.834;6.752;2023-04-24T12:09:45;11.60;;;6.72;;
22644;SDS011;11489;50.834;6.752;2023-04-24T12:12:16;11.65;;;6.15;;
22644;SDS011;11489;50.834;6.752;2023-04-24T12:14:49;13.13;;;6.07;;
22644;SDS011;11489;50.834;6.752;2023-04-24T12:17:17;12.75;;;6.32;;
22644;SDS011;11489;50.834;6.752;2023-04-24T12:19:52;13.88;;;6.70;;
22644;SDS011;11489;50.834;6.752;2023-04-24T12:25:19;13.05;;;5.65;;
22644;SDS011;11489;50.834;6.752;2023-04-24T12:27:51;11.93;;;5.90;;
22644;SDS011;11489;50.834;6.752;2023-04-24T12:30:20;14.40;;;6.50;;
22644;SDS011;11489;50.834;6.752;2023-04-24T12:32:47;11.25;;;5.82;;
22644;SDS011;11489;50.834;6.752;2023-04-24T12:35:23;11.07;;;5.50;;
22644;SDS011;11489;50.834;6.752;2023-04-24T12:37:50;11.75;;;6.30;;
22644;SDS011;11489;50.834;6.752;2023-04-24T12:40:16;10.30;;;6.13;;
22644;SDS011;11489;50.834;6.752;2023-04-24T12:42:49;11.68;;;6.00;;
22644;SDS011;11489;50.834;6.752;2023-04-24T12:45:19;8.80;;;5.15;;
22644;SDS011;11489;50.834;6.752;2023-04-24T12:47:45;10.52;;;5.30;;
22644;SDS011;11489;50.834;6.752;2023-04-24T12:50:13;7.60;;;5.10;;
22644;SDS011;11489;50.834;6.752;2023-04-24T12:52:40;14.02;;;5.70;;
22644;SDS011;11489;50.834;6.752;2023-04-24T12:55:07;9.27;;;4.97;;
22644;SDS011;11489;50.834;6.752;2023-04-24T12:57:34;10.68;;;5.03;;
22644;SDS011;11489;50.834;6.752;2023-04-24T13:00:00;9.50;;;5.55;;
22644;SDS011;11489;50.834;6.752;2023-04-24T13:02:27;9.80;;;4.95;;
22644;SDS011;11489;50.834;6.752;2023-04-24T13:04:55;11.82;;;5.28;;
22644;SDS011;11489;50.834;6.752;2023-04-24T13:07:21;13.90;;;4.97;;
22644;SDS011;11489;50.834;6.752;2023-04-24T13:09:47;10.25;;;4.80;;
22644;SDS011;11489;50.834;6.752;2023-04-24T13:12:17;7.75;;;4.80;;
22644;SDS011;11489;50.834;6.752;2023-04-24T13:14:43;14.70;;;5.07;;
22644;SDS011;11489;50.834;6.752;2023-04-24T13:17:09;10.70;;;5.55;;
22644;SDS011;11489;50.834;6.752;2023-04-24T13:19:37;13.55;;;6.13;;
22644;SDS011;11489;50.834;6.752;2023-04-24T13:22:03;13.38;;;5.60;;
22644;SDS011;11489;50.834;6.752;2023-04-24T13:24:30;10.30;;;5.65;;
22644;SDS011;11489;50.834;6.752;2023-04-24T13:26:56;9.05;;;5.30;;
22644;SDS011;11489;50.834;6.752;2023-04-24T13:29:22;8.68;;;5.55;;
22644;SDS011;11489;50.834;6.752;2023-04-24T13:31:51;9.95;;;5.75;;
22644;SDS011;11489;50.834;6.752;2023-04-24T13:34:22;12.60;;;6.00;;
22644;SDS011;11489;50.834;6.752;2023-04-24T13:36:55;9.55;;;5.63;;
22644;SDS011;11489;50.834;6.752;2023-04-24T13:39:22;13.35;;;6.25;;
22644;SDS011;11489;50.834;6.752;2023-04-24T13:41:48;12.80;;;5.72;;
22644;SDS011;11489;50.834;6.752;2023-04-24T13:44:14;10.40;;;5.95;;
22644;SDS011;11489;50.834;6.752;2023-04-24T13:46:41;15.55;;;5.72;;
22644;SDS011;11489;50.834;6.752;2023-04-24T13:49:09;9.40;;;5.60;;
22644;SDS011;11489;50.834;6.752;2023-04-24T13:51:35;10.50;;;5.53;;
22644;SDS011;11489;50.834;6.752;2023-04-24T13:54:00;12.63;;;6.22;;
22644;SDS011;11489;50.834;6.752;2023-04-24T13:56:26;16.13;;;6.43;;
22644;SDS011;11489;50.834;6.752;2023-04-24T13:58:52;9.90;;;5.75;;
22644;SDS011;11489;50.834;6.752;2023-04-24T14:01:19;12.63;;;6.68;;
22644;SDS011;11489;50.834;6.752;2023-04-24T14:03:49;9.88;;;6.40;;
22644;SDS011;11489;50.834;6.752;2023-04-24T14:06:15;14.18;;;6.25;;
22644;SDS011;11489;50.834;6.752;2023-04-24T14:08:41;9.60;;;6.30;;
22644;SDS011;11489;50.834;6.752;2023-04-24T14:11:06;9.95;;;5.95;;
22644;SDS011;11489;50.834;6.752;2023-04-24T14:13:32;10.73;;;6.00;;
22644;SDS011;11489;50.834;6.752;2023-04-24T14:15:58;14.35;;;6.40;;
22644;SDS011;11489;50.834;6.752;2023-04-24T14:18:23;10.02;;;5.75;;
22644;SDS011;11489;50.834;6.752;2023-04-24T14:20:49;13.15;;;5.97;;
22644;SDS011;11489;50.834;6.752;2023-04-24T14:23:15;11.75;;;5.72;;
22644;SDS011;11489;50.834;6.752;2023-04-24T14:25:41;9.77;;;5.15;;
22644;SDS011;11489;50.834;6.752;2023-04-24T14:28:06;9.75;;;5.40;;
22644;SDS011;11489;50.834;6.752;2023-04-24T14:30:32;9.48;;;5.38;;
22644;SDS011;11489;50.834;6.752;2023-04-24T14:32:58;9.10;;;4.90;;
22644;SDS011;11489;50.834;6.752;2023-04-24T14:35:23;8.55;;;5.30;;
22644;SDS011;11489;50.834;6.752;2023-04-24T14:37:49;9.88;;;5.00;;
22644;SDS011;11489;50.834;6.752;2023-04-24T14:40:15;8.02;;;4.75;;
22644;SDS011;11489;50.834;6.752;2023-04-24T14:42:40;12.20;;;5.10;;
22644;SDS011;11489;50.834;6.752;2023-04-24T14:45:06;8.93;;;4.80;;
22644;SDS011;11489;50.834;6.752;2023-04-24T14:47:33;8.30;;;4.90;;
22644;SDS011;11489;50.834;6.752;2023-04-24T14:49:58;10.63;;;4.60;;
22644;SDS011;11489;50.834;6.752;2023-04-24T14:52:24;7.15;;;4.43;;
22644;SDS011;11489;50.834;6.752;2023-04-24T14:54:50;10.52;;;4.75;;